createdAt,value
2018-11-29T00:00:49.917Z,28.1
2018-11-29T00:02:49.917Z,27.4
2018-11-29T00:04:50.358Z,27.4
2018-11-29T00:06:49.606Z,27.2
2018-11-29T00:08:49.844Z,27.4
2018-11-29T00:10:49.864Z,27.3
2018-11-29T00:12:49.887Z,27.9
2018-11-29T00:14:49.892Z,27.9
2018-11-29T00:16:50.172Z,28.2
2018-11-29T00:18:50.164Z,28.6
2018-11-29T00:20:50.170Z,26.5
2018-11-29T00:22:50.189Z,26.4
2018-11-29T00:24:50.221Z,26.4
2018-11-29T00:26:49.574Z,28.2
2018-11-29T00:28:49.712Z,26.4
2018-11-29T00:30:49.686Z,26.4
2018-11-29T00:32:49.833Z,27.0
2018-11-29T00:34:50.203Z,27.0
2018-11-29T00:36:50.401Z,27.4
2018-11-29T00:38:50.502Z,26.6
2018-11-29T00:40:49.617Z,26.2
2018-11-29T00:42:49.782Z,27.0
2018-11-29T00:44:49.840Z,27.0
2018-11-29T00:46:50.091Z,27.0
2018-11-29T00:48:50.125Z,27.0
2018-11-29T00:50:50.085Z,26.5
2018-11-29T00:52:50.059Z,27.3
2018-11-29T00:54:50.105Z,27.3
2018-11-29T00:56:50.292Z,26.9
2018-11-29T00:58:50.236Z,26.9
2018-11-29T01:00:50.262Z,27.0
2018-11-29T01:02:50.408Z,27.0
2018-11-29T01:04:49.789Z,28.5
2018-11-29T01:06:50.005Z,28.5
2018-11-29T01:08:50.032Z,27.8
2018-11-29T01:10:50.085Z,27.9
2018-11-29T01:12:50.096Z,27.9
2018-11-29T01:14:50.141Z,26.0
2018-11-29T01:16:50.387Z,26.9
2018-11-29T01:18:49.552Z,28.3
2018-11-29T01:20:49.642Z,27.5
2018-11-29T01:22:49.845Z,27.5
2018-11-29T01:24:49.850Z,27.4
2018-11-29T01:26:50.016Z,27.1
2018-11-29T01:28:50.070Z,26.9
2018-11-29T01:30:50.222Z,26.9
2018-11-29T01:32:50.267Z,25.6
2018-11-29T01:34:49.921Z,25.1
2018-11-29T01:36:50.055Z,27.0
2018-11-29T01:38:50.037Z,22.2
2018-11-29T01:40:50.057Z,22.2
2018-11-29T01:42:50.106Z,27.9
2018-11-29T01:44:50.162Z,27.4
2018-11-29T01:46:50.424Z,27.4
2018-11-29T01:48:50.355Z,27.4
2018-11-29T01:50:50.514Z,24.1
2018-11-29T01:52:49.620Z,25.9
2018-11-29T01:54:49.653Z,27.8
2018-11-29T01:56:50.122Z,28.6
2018-11-29T01:58:50.125Z,28.9
2018-11-29T02:00:50.073Z,28.9
2018-11-29T02:02:50.072Z,28.6
2018-11-29T02:04:50.256Z,28.6
2018-11-29T02:06:49.562Z,29.6
2018-11-29T02:08:49.560Z,29.6
2018-11-29T02:10:49.657Z,28.7
2018-11-29T02:12:49.768Z,27.9
2018-11-29T02:14:49.961Z,27.9
2018-11-29T02:16:50.350Z,27.3
2018-11-29T02:18:50.409Z,27.3
2018-11-29T02:20:49.567Z,28.4
2018-11-29T02:22:49.822Z,28.0
2018-11-29T02:24:49.934Z,28.0
2018-11-29T02:26:50.268Z,28.4
2018-11-29T02:28:50.405Z,28.4
2018-11-29T02:30:50.466Z,27.2
2018-11-29T02:32:49.574Z,27.5
2018-11-29T02:34:50.058Z,27.9
2018-11-29T02:36:50.412Z,29.5
2018-11-29T02:38:50.428Z,29.5
2018-11-29T02:40:50.584Z,28.0
2018-11-29T02:42:49.581Z,30.0
2018-11-29T02:44:49.725Z,30.0
2018-11-29T02:46:50.121Z,29.7
2018-11-29T02:48:50.298Z,29.7
2018-11-29T02:50:50.356Z,29.7
2018-11-29T02:52:50.386Z,28.7
2018-11-29T02:54:50.340Z,28.7
2018-11-29T02:56:49.667Z,28.9
2018-11-29T02:58:49.706Z,28.9
2018-11-29T03:00:49.846Z,29.5
2018-11-29T03:02:49.851Z,29.9
2018-11-29T03:04:50.351Z,30.2
2018-11-29T03:06:49.701Z,30.2
2018-11-29T03:08:50.515Z,29.2
2018-11-29T03:10:49.622Z,29.8
2018-11-29T03:12:49.665Z,28.3
2018-11-29T03:14:49.686Z,28.3
2018-11-29T03:16:49.994Z,27.3
2018-11-29T03:18:49.960Z,29.6
2018-11-29T03:20:49.990Z,29.5
2018-11-29T03:22:49.984Z,29.5
2018-11-29T03:24:50.021Z,29.1
2018-11-29T03:26:50.321Z,29.4
2018-11-29T03:28:50.434Z,28.3
2018-11-29T03:30:50.395Z,29.8
2018-11-29T03:32:50.555Z,29.3
2018-11-29T03:34:50.038Z,27.8
2018-11-29T03:36:50.345Z,27.8
2018-11-29T03:38:50.316Z,28.6
2018-11-29T03:40:50.313Z,28.3
2018-11-29T03:42:50.327Z,28.3
2018-11-29T03:44:49.558Z,28.6
2018-11-29T03:46:49.797Z,28.6
2018-11-29T03:48:49.813Z,29.8
2018-11-29T03:50:49.806Z,29.3
2018-11-29T03:52:49.848Z,30.4
2018-11-29T03:54:49.790Z,30.4
2018-11-29T03:56:49.973Z,30.4
2018-11-29T03:58:49.988Z,30.4
2018-11-29T04:00:49.992Z,29.9
2018-11-29T04:02:50.216Z,29.9
2018-11-29T04:04:50.518Z,29.5
2018-11-29T04:06:49.769Z,30.0
2018-11-29T04:08:49.762Z,28.4
2018-11-29T04:10:49.872Z,29.6
2018-11-29T04:12:49.858Z,29.6
2018-11-29T04:14:49.903Z,29.5
2018-11-29T04:16:50.121Z,29.5
2018-11-29T04:18:50.106Z,29.9
2018-11-29T04:20:50.194Z,29.7
2018-11-29T04:22:50.260Z,28.8
2018-11-29T04:24:50.302Z,28.8
2018-11-29T04:26:49.522Z,30.4
2018-11-29T04:28:49.546Z,29.4
2018-11-29T04:30:49.578Z,29.7
2018-11-29T04:32:49.680Z,29.5
2018-11-29T04:34:50.012Z,29.5
2018-11-29T04:36:50.158Z,30.1
2018-11-29T04:38:50.257Z,29.2
2018-11-29T04:40:50.360Z,29.2
2018-11-29T04:42:50.352Z,29.5
2018-11-29T04:44:50.315Z,29.8
2018-11-29T04:46:49.566Z,29.8
2018-11-29T04:48:49.649Z,28.3
2018-11-29T04:50:49.978Z,28.3
2018-11-29T04:52:50.038Z,30.1
2018-11-29T04:54:49.998Z,29.7
2018-11-29T04:56:50.450Z,28.5
2018-11-29T04:58:49.573Z,28.5
2018-11-29T05:00:49.526Z,29.1
2018-11-29T05:02:49.558Z,29.1
2018-11-29T05:04:50.166Z,28.9
2018-11-29T05:06:50.355Z,28.6
2018-11-29T05:08:50.368Z,28.3
2018-11-29T05:10:50.349Z,28.0
2018-11-29T05:12:50.448Z,28.0
2018-11-29T05:14:50.450Z,27.9
2018-11-29T05:16:49.768Z,27.0
2018-11-29T05:18:49.796Z,27.0
2018-11-29T05:20:49.759Z,26.5
2018-11-29T05:22:49.829Z,27.5
2018-11-29T05:24:49.862Z,28.2
2018-11-29T05:26:49.804Z,26.7
2018-11-29T05:28:49.814Z,27.3
2018-11-29T05:30:49.785Z,27.3
2018-11-29T05:32:49.805Z,27.1
2018-11-29T05:34:50.131Z,27.6
2018-11-29T05:36:50.370Z,26.6
2018-11-29T05:38:50.515Z,26.6
2018-11-29T05:40:49.597Z,28.7
2018-11-29T05:42:49.708Z,26.9
2018-11-29T05:44:49.780Z,26.7
2018-11-29T05:46:50.092Z,25.9
2018-11-29T05:48:50.135Z,24.6
2018-11-29T05:50:50.216Z,24.6
2018-11-29T05:52:50.330Z,24.7
2018-11-29T05:54:50.343Z,24.7
2018-11-29T05:56:49.834Z,23.9
2018-11-29T05:58:49.896Z,23.5
2018-11-29T06:00:50.004Z,23.5
2018-11-29T06:02:50.053Z,23.2
2018-11-29T06:04:50.414Z,23.2
2018-11-29T06:06:49.671Z,24.2
2018-11-29T06:08:49.851Z,24.1
2018-11-29T06:10:49.939Z,24.1
2018-11-29T06:12:49.924Z,22.1
2018-11-29T06:14:50.003Z,23.2
2018-11-29T06:16:50.166Z,22.0
2018-11-29T06:18:50.190Z,22.6
2018-11-29T06:20:50.534Z,22.6
2018-11-29T06:22:49.523Z,31.9
2018-11-29T06:24:49.562Z,21.8
2018-11-29T06:26:49.830Z,22.6
2018-11-29T06:28:49.811Z,25.1
2018-11-29T06:30:49.802Z,25.1
2018-11-29T06:32:49.852Z,20.9
2018-11-29T06:34:50.267Z,20.6
2018-11-29T06:36:50.088Z,20.6
2018-11-29T06:38:50.077Z,21.6
2018-11-29T06:40:50.107Z,21.6
2018-11-29T06:42:50.407Z,21.3
2018-11-29T06:44:49.615Z,21.3
2018-11-29T06:46:49.875Z,21.9
2018-11-29T06:48:49.919Z,21.9
2018-11-29T06:50:49.994Z,21.9
2018-11-29T06:52:50.144Z,20.2
2018-11-29T06:54:50.164Z,20.2
2018-11-29T06:56:50.424Z,19.3
2018-11-29T06:58:49.566Z,19.3
2018-11-29T07:00:49.666Z,18.6
2018-11-29T07:02:49.749Z,18.4
2018-11-29T07:04:50.111Z,20.7
2018-11-29T07:06:50.384Z,20.7
2018-11-29T07:08:50.404Z,18.3
2018-11-29T07:10:50.423Z,18.6
2018-11-29T07:12:50.378Z,19.5
2018-11-29T07:14:50.411Z,19.4
2018-11-29T07:16:49.657Z,19.4
2018-11-29T07:18:49.890Z,18.8
2018-11-29T07:20:49.751Z,18.5
2018-11-29T07:22:49.539Z,18.5
2018-11-29T07:24:50.382Z,18.2
2018-11-29T07:26:50.345Z,18.2
2018-11-29T07:28:50.145Z,17.3
2018-11-29T07:30:50.025Z,16.0
2018-11-29T07:32:49.908Z,18.5
2018-11-29T07:34:50.130Z,18.5
2018-11-29T07:36:50.150Z,18.2
2018-11-29T07:38:50.018Z,18.1
2018-11-29T07:40:49.908Z,18.9
2018-11-29T07:42:49.762Z,21.1
2018-11-29T07:44:49.771Z,21.1
2018-11-29T07:46:49.841Z,21.1
2018-11-29T07:48:49.702Z,17.6
2018-11-29T07:50:49.619Z,18.5
2018-11-29T07:52:50.419Z,18.5
2018-11-29T07:54:50.265Z,18.6
2018-11-29T07:56:50.323Z,18.0
2018-11-29T07:58:53.146Z,18.0
2018-11-29T08:00:50.044Z,19.2
2018-11-29T08:02:49.910Z,19.2
2018-11-29T08:04:50.107Z,19.4
2018-11-29T08:06:50.407Z,19.2
2018-11-29T08:08:50.322Z,18.0
2018-11-29T08:10:50.359Z,18.6
2018-11-29T08:12:50.361Z,18.6
2018-11-29T08:14:49.545Z,17.8
2018-11-29T08:16:49.745Z,17.8
2018-11-29T08:18:49.811Z,17.4
2018-11-29T08:20:49.878Z,17.4
2018-11-29T08:22:49.883Z,16.5
2018-11-29T08:24:49.877Z,16.5
2018-11-29T08:26:50.041Z,17.2
2018-11-29T08:28:50.079Z,17.1
2018-11-29T08:30:50.141Z,17.1
2018-11-29T08:32:50.134Z,18.8
2018-11-29T08:34:49.530Z,18.3
2018-11-29T08:36:49.756Z,16.9
2018-11-29T08:38:49.728Z,18.6
2018-11-29T08:40:50.006Z,18.6
2018-11-29T08:42:49.997Z,16.3
2018-11-29T08:44:49.895Z,16.3
2018-11-29T08:46:50.132Z,16.5
2018-11-29T08:48:50.157Z,17.7
2018-11-29T08:50:50.129Z,17.2
2018-11-29T08:52:50.200Z,17.2
2018-11-29T08:54:50.230Z,17.5
2018-11-29T08:56:50.372Z,17.4
2018-11-29T08:58:50.363Z,17.8
2018-11-29T09:00:49.558Z,16.7
2018-11-29T09:02:49.665Z,16.7
2018-11-29T09:04:50.032Z,19.9
2018-11-29T09:06:50.160Z,17.8
2018-11-29T09:08:50.146Z,16.8
2018-11-29T09:10:50.113Z,16.8
2018-11-29T09:12:50.216Z,18.0
2018-11-29T09:14:50.139Z,16.9
2018-11-29T09:16:50.308Z,16.9
2018-11-29T09:18:50.319Z,17.2
2018-11-29T09:20:50.418Z,18.0
2018-11-29T09:22:50.406Z,18.0
2018-11-29T09:24:50.494Z,17.4
2018-11-29T09:26:49.791Z,17.5
2018-11-29T09:28:49.755Z,18.1
2018-11-29T09:30:49.732Z,20.7
2018-11-29T09:32:49.765Z,20.7
2018-11-29T09:34:50.067Z,17.7
2018-11-29T09:36:50.396Z,16.9
2018-11-29T09:38:50.401Z,18.4
2018-11-29T09:40:49.582Z,18.4
2018-11-29T09:42:49.525Z,17.5
2018-11-29T09:44:49.588Z,18.5
2018-11-29T09:46:50.061Z,17.4
2018-11-29T09:48:49.972Z,17.5
2018-11-29T09:50:49.900Z,17.5
2018-11-29T09:52:49.957Z,17.9
2018-11-29T09:54:50.028Z,16.3
2018-11-29T09:56:50.290Z,16.3
2018-11-29T09:58:50.277Z,16.3
2018-11-29T10:00:50.219Z,15.8
2018-11-29T10:02:50.215Z,16.2
2018-11-29T10:04:49.576Z,14.5
2018-11-29T10:06:49.881Z,14.5
2018-11-29T10:08:49.886Z,15.8
2018-11-29T10:10:49.863Z,15.8
2018-11-29T10:12:49.878Z,16.0
2018-11-29T10:14:49.824Z,15.0
2018-11-29T10:16:49.968Z,15.0
2018-11-29T10:18:49.971Z,15.7
2018-11-29T10:20:49.987Z,14.9
2018-11-29T10:22:50.034Z,15.6
2018-11-29T10:24:50.028Z,14.8
2018-11-29T10:26:50.282Z,14.8
2018-11-29T10:28:50.297Z,14.9
2018-11-29T10:30:50.317Z,14.9
2018-11-29T10:32:50.464Z,15.0
2018-11-29T10:34:49.857Z,14.8
2018-11-29T10:36:50.068Z,14.8
2018-11-29T10:38:50.066Z,13.9
2018-11-29T10:40:50.082Z,14.7
2018-11-29T10:42:50.255Z,14.1
2018-11-29T10:44:50.292Z,14.1
2018-11-29T10:46:49.586Z,13.8
2018-11-29T10:48:49.625Z,13.8
2018-11-29T10:50:49.664Z,15.1
2018-11-29T10:52:49.626Z,15.0
2018-11-29T10:54:49.652Z,14.1
2018-11-29T10:56:50.000Z,13.4
2018-11-29T10:58:49.954Z,13.4
2018-11-29T11:00:49.994Z,13.8
2018-11-29T11:02:50.078Z,13.4
2018-11-29T11:04:50.409Z,13.9
2018-11-29T11:06:49.785Z,13.9
2018-11-29T11:08:49.996Z,13.2
2018-11-29T11:10:50.305Z,13.2
2018-11-29T11:12:49.544Z,13.0
2018-11-29T11:14:49.789Z,14.4
2018-11-29T11:16:50.139Z,14.4
2018-11-29T11:18:50.284Z,12.9
2018-11-29T11:20:50.339Z,12.8
2018-11-29T11:22:49.651Z,12.8
2018-11-29T11:24:49.788Z,12.5
2018-11-29T11:26:50.135Z,12.5
2018-11-29T11:28:50.410Z,12.2
2018-11-29T11:30:49.642Z,11.3
2018-11-29T11:32:49.735Z,12.2
2018-11-29T11:34:50.235Z,12.0
2018-11-29T11:36:49.616Z,12.0
2018-11-29T11:38:49.855Z,12.3
2018-11-29T11:40:50.342Z,11.1
2018-11-29T11:42:49.745Z,11.1
2018-11-29T11:44:49.935Z,12.6
2018-11-29T11:46:50.355Z,12.6
2018-11-29T11:48:50.423Z,11.6
2018-11-29T11:50:49.598Z,11.4
2018-11-29T11:52:49.865Z,11.4
2018-11-29T11:54:50.120Z,11.5
2018-11-29T11:56:50.484Z,11.5
2018-11-29T11:58:49.780Z,11.6
2018-11-29T12:00:49.962Z,12.4
2018-11-29T12:02:50.118Z,10.3
2018-11-29T12:04:49.985Z,10.6
2018-11-29T12:06:50.320Z,10.6
2018-11-29T12:08:49.518Z,10.2
2018-11-29T12:10:49.691Z,10.3
2018-11-29T12:12:49.772Z,10.4
2018-11-29T12:14:49.893Z,11.0
2018-11-29T12:16:50.449Z,11.0
2018-11-29T12:18:49.668Z,10.5
2018-11-29T12:20:49.804Z,10.5
2018-11-29T12:22:49.885Z,11.1
2018-11-29T12:24:50.137Z,11.1
2018-11-29T12:26:50.516Z,11.8
2018-11-29T12:28:49.696Z,11.0
2018-11-29T12:30:49.821Z,9.8
2018-11-29T12:32:50.017Z,9.8
2018-11-29T12:34:49.676Z,9.3
2018-11-29T12:36:50.136Z,9.2
2018-11-29T12:38:50.401Z,9.2
2018-11-29T12:40:49.622Z,9.1
2018-11-29T12:42:49.768Z,9.1
2018-11-29T12:44:49.879Z,8.2
2018-11-29T12:46:50.156Z,8.9
2018-11-29T12:48:50.269Z,8.4
2018-11-29T12:50:50.402Z,8.4
2018-11-29T12:52:49.684Z,16.2
2018-11-29T12:54:49.867Z,7.8
2018-11-29T12:56:50.172Z,8.1
2018-11-29T12:58:50.275Z,8.1
2018-11-29T13:00:49.545Z,7.5
2018-11-29T13:02:49.984Z,9.9
2018-11-29T13:04:49.560Z,9.9
2018-11-29T13:06:49.876Z,8.0
2018-11-29T13:08:49.981Z,7.4
2018-11-29T13:10:50.144Z,7.5
2018-11-29T13:12:50.270Z,8.5
2018-11-29T13:14:50.456Z,8.5
2018-11-29T13:16:49.970Z,9.4
2018-11-29T13:18:50.237Z,7.2
2018-11-29T13:20:49.533Z,7.2
2018-11-29T13:22:49.775Z,7.2
2018-11-29T13:24:49.910Z,8.3
2018-11-29T13:26:50.232Z,7.8
2018-11-29T13:28:50.359Z,11.6
2018-11-29T13:30:49.625Z,7.2
2018-11-29T13:32:50.514Z,7.2
2018-11-29T13:34:50.255Z,7.1
2018-11-29T13:36:49.666Z,7.5
2018-11-29T13:38:49.797Z,7.1
2018-11-29T13:40:51.226Z,8.1
2018-11-29T13:42:50.546Z,8.1
2018-11-29T13:44:49.914Z,9.2
2018-11-29T13:46:49.878Z,8.1
2018-11-29T13:48:50.020Z,8.1
2018-11-29T13:50:50.200Z,7.1
2018-11-29T13:52:50.408Z,8.4
2018-11-29T13:54:49.633Z,7.1
2018-11-29T13:56:50.023Z,7.1
2018-11-29T13:58:50.209Z,7.1
2018-11-29T14:00:50.334Z,7.1
2018-11-29T14:02:49.654Z,8.2
2018-11-29T14:04:49.816Z,7.3
2018-11-29T14:06:50.419Z,7.0
2018-11-29T14:08:49.595Z,7.0
2018-11-29T14:10:50.065Z,7.6
2018-11-29T14:12:50.549Z,6.9
2018-11-29T14:14:50.122Z,7.7
2018-11-29T14:16:49.536Z,21.5
2018-11-29T14:18:49.782Z,21.5
2018-11-29T14:20:49.931Z,61.8
2018-11-29T14:22:50.053Z,7.2
2018-11-29T14:24:50.422Z,9.1
2018-11-29T14:26:50.082Z,9.1
2018-11-29T14:28:50.394Z,7.5
2018-11-29T14:30:49.580Z,7.9
2018-11-29T14:32:49.694Z,7.0
2018-11-29T14:34:52.119Z,7.9
2018-11-29T14:36:50.512Z,7.9
2018-11-29T14:38:49.715Z,7.1
2018-11-29T14:40:49.954Z,6.6
2018-11-29T14:42:50.176Z,6.4
2018-11-29T14:44:50.381Z,6.2
2018-11-29T14:46:49.776Z,6.2
2018-11-29T14:48:49.979Z,6.4
2018-11-29T14:50:50.063Z,6.2
2018-11-29T14:52:50.162Z,6.7
2018-11-29T14:54:50.313Z,6.7
2018-11-29T14:56:49.912Z,6.6
2018-11-29T14:58:50.183Z,6.6
2018-11-29T15:00:50.289Z,6.9
2018-11-29T15:02:50.358Z,6.3
2018-11-29T15:04:49.980Z,6.3
2018-11-29T15:06:50.282Z,13.7
2018-11-29T15:08:49.847Z,13.7
2018-11-29T15:10:49.985Z,6.5
2018-11-29T15:12:50.161Z,6.5
2018-11-29T15:14:50.246Z,6.1
2018-11-29T15:16:49.633Z,6.1
2018-11-29T15:18:49.788Z,6.5
2018-11-29T15:20:49.995Z,6.0
2018-11-29T15:22:50.106Z,6.4
2018-11-29T15:24:50.304Z,6.3
2018-11-29T15:26:49.685Z,6.7
2018-11-29T15:28:49.764Z,6.7
2018-11-29T15:30:49.907Z,7.4
2018-11-29T15:32:50.112Z,6.2
2018-11-29T15:34:49.544Z,6.2
2018-11-29T15:36:50.089Z,6.4
2018-11-29T15:38:50.193Z,7.8
2018-11-29T15:40:50.478Z,7.0
2018-11-29T15:42:49.598Z,6.3
2018-11-29T15:44:49.729Z,6.2
2018-11-29T15:46:50.075Z,6.2
2018-11-29T15:48:50.148Z,6.2
2018-11-29T15:50:50.249Z,6.4
2018-11-29T15:52:50.485Z,6.1
2018-11-29T15:54:49.726Z,5.8
2018-11-29T15:56:50.053Z,5.8
2018-11-29T15:58:50.203Z,5.8
2018-11-29T16:00:50.323Z,5.7
2018-11-29T16:02:49.569Z,5.7
2018-11-29T16:04:50.034Z,5.7
2018-11-29T16:06:50.327Z,6.5
2018-11-29T16:08:49.535Z,6.1
2018-11-29T16:10:49.744Z,5.6
2018-11-29T16:12:49.833Z,6.1
2018-11-29T16:14:50.003Z,6.1
2018-11-29T16:16:50.448Z,5.9
2018-11-29T16:18:49.578Z,5.9
2018-11-29T16:20:49.894Z,6.3
2018-11-29T16:22:50.100Z,6.1
2018-11-29T16:24:50.433Z,6.1
2018-11-29T16:26:49.792Z,6.3
2018-11-29T16:28:49.923Z,6.3
2018-11-29T16:30:50.045Z,6.0
2018-11-29T16:32:50.212Z,6.4
2018-11-29T16:34:49.762Z,6.4
2018-11-29T16:36:50.093Z,6.2
2018-11-29T16:38:50.265Z,6.8
2018-11-29T16:40:50.361Z,6.3
2018-11-29T16:42:49.562Z,6.3
2018-11-29T16:44:49.751Z,6.4
2018-11-29T16:46:50.312Z,6.1
2018-11-29T16:48:50.130Z,6.7
2018-11-29T16:50:50.293Z,6.7
2018-11-29T16:52:50.414Z,5.8
2018-11-29T16:54:49.550Z,6.4
2018-11-29T16:56:49.902Z,6.4
2018-11-29T16:58:50.124Z,6.5
2018-11-29T17:00:50.281Z,6.5
2018-11-29T17:02:50.392Z,6.8
2018-11-29T17:04:50.007Z,6.8
2018-11-29T17:06:50.344Z,6.8
2018-11-29T17:08:49.534Z,6.9
2018-11-29T17:10:49.744Z,6.9
2018-11-29T17:12:49.896Z,7.0
2018-11-29T17:14:50.049Z,7.9
2018-11-29T17:16:50.358Z,7.9
2018-11-29T17:18:49.562Z,7.6
2018-11-29T17:20:49.710Z,7.7
2018-11-29T17:22:50.019Z,7.7
2018-11-29T17:24:50.193Z,7.9
2018-11-29T17:26:49.548Z,8.3
2018-11-29T17:28:49.748Z,8.3
2018-11-29T17:30:49.911Z,8.6
2018-11-29T17:32:50.064Z,8.6
2018-11-29T17:34:50.421Z,8.7
2018-11-29T17:36:49.793Z,8.2
2018-11-29T17:38:49.960Z,8.2
2018-11-29T17:40:50.207Z,8.7
2018-11-29T17:42:50.362Z,8.7
2018-11-29T17:44:50.465Z,9.1
2018-11-29T17:46:49.895Z,9.4
2018-11-29T17:48:50.024Z,9.8
2018-11-29T17:50:50.252Z,9.8
2018-11-29T17:52:50.382Z,9.4
2018-11-29T17:54:49.537Z,9.8
2018-11-29T17:56:49.836Z,9.4
2018-11-29T17:58:49.969Z,9.5
2018-11-29T18:00:50.115Z,9.5
2018-11-29T18:02:50.278Z,10.1
2018-11-29T18:04:50.041Z,10.1
2018-11-29T18:06:50.414Z,9.7
2018-11-29T18:08:49.534Z,9.7
2018-11-29T18:10:49.704Z,9.8
2018-11-29T18:12:49.849Z,9.7
2018-11-29T18:14:49.994Z,9.0
2018-11-29T18:16:50.327Z,9.6
2018-11-29T18:18:49.541Z,9.6
2018-11-29T18:20:49.801Z,9.7
2018-11-29T18:22:49.977Z,10.0
2018-11-29T18:24:50.185Z,10.1
2018-11-29T18:26:49.634Z,10.6
2018-11-29T18:28:49.860Z,10.6
2018-11-29T18:30:49.948Z,10.4
2018-11-29T18:32:50.085Z,10.1
2018-11-29T18:34:49.833Z,10.1
2018-11-29T18:36:50.213Z,10.8
2018-11-29T18:38:50.336Z,10.8
2018-11-29T18:40:49.572Z,11.2
2018-11-29T18:42:49.845Z,11.3
2018-11-29T18:44:50.051Z,11.4
2018-11-29T18:46:50.486Z,11.8
2018-11-29T18:48:49.563Z,11.8
2018-11-29T18:50:49.702Z,12.0
2018-11-29T18:52:49.845Z,12.7
2018-11-29T18:54:49.982Z,12.5
2018-11-29T18:56:50.360Z,13.3
2018-11-29T18:58:50.484Z,13.3
2018-11-29T19:00:49.679Z,12.6
2018-11-29T19:02:49.911Z,13.2
2018-11-29T19:04:50.379Z,12.5
2018-11-29T19:06:49.737Z,12.5
2018-11-29T19:08:49.951Z,13.5
2018-11-29T19:10:50.142Z,14.2
2018-11-29T19:12:50.331Z,17.6
2018-11-29T19:14:49.534Z,17.6
2018-11-29T19:16:49.994Z,13.7
2018-11-29T19:18:50.162Z,13.7
2018-11-29T19:20:50.297Z,14.2
2018-11-29T19:22:50.477Z,13.7
2018-11-29T19:24:49.658Z,13.9
2018-11-29T19:26:50.207Z,12.7
2018-11-29T19:28:50.314Z,12.7
2018-11-29T19:30:49.530Z,13.8
2018-11-29T19:32:49.736Z,12.5
2018-11-29T19:34:50.192Z,12.5
2018-11-29T19:36:49.587Z,13.3
2018-11-29T19:38:49.757Z,14.4
2018-11-29T19:40:49.909Z,14.1
2018-11-29T19:42:50.114Z,14.0
2018-11-29T19:44:50.497Z,14.0
2018-11-29T19:46:49.524Z,13.5
2018-11-29T19:48:49.651Z,13.7
2018-11-29T19:50:49.887Z,13.7
2018-11-29T19:52:50.076Z,13.7
2018-11-29T19:54:50.286Z,13.9
2018-11-29T19:56:49.666Z,13.9
2018-11-29T19:58:49.823Z,13.7
2018-11-29T20:00:50.199Z,14.6
2018-11-29T20:02:50.491Z,14.4
2018-11-29T20:04:50.133Z,14.4
2018-11-29T20:06:50.346Z,14.3
2018-11-29T20:08:49.544Z,14.0
2018-11-29T20:10:49.732Z,14.5
2018-11-29T20:12:49.837Z,13.4
2018-11-29T20:14:49.995Z,13.4
2018-11-29T20:16:50.455Z,13.6
2018-11-29T20:18:49.645Z,13.6
2018-11-29T20:20:49.830Z,14.1
2018-11-29T20:22:50.051Z,14.6
2018-11-29T20:24:50.198Z,14.6
2018-11-29T20:26:49.562Z,14.5
2018-11-29T20:28:49.736Z,14.5
2018-11-29T20:30:49.872Z,14.5
2018-11-29T20:32:50.147Z,14.6
2018-11-29T20:34:49.740Z,14.6
2018-11-29T20:36:50.043Z,13.9
2018-11-29T20:38:50.192Z,14.6
2018-11-29T20:40:50.349Z,14.7
2018-11-29T20:42:49.609Z,14.7
2018-11-29T20:44:49.684Z,14.4
2018-11-29T20:46:49.969Z,14.4
2018-11-29T20:48:50.108Z,14.0
2018-11-29T20:50:50.276Z,14.3
2018-11-29T20:52:50.389Z,14.3
2018-11-29T20:54:50.506Z,14.6
2018-11-29T20:56:49.815Z,15.0
2018-11-29T20:58:49.994Z,14.2
2018-11-29T21:00:50.232Z,14.2
2018-11-29T21:02:50.405Z,14.7
2018-11-29T21:04:49.861Z,14.3
2018-11-29T21:06:50.391Z,14.7
2018-11-29T21:08:49.581Z,13.8
2018-11-29T21:10:49.875Z,14.4
2018-11-29T21:12:50.168Z,14.4
2018-11-29T21:14:50.318Z,13.6
2018-11-29T21:16:49.733Z,14.1
2018-11-29T21:18:49.899Z,14.3
2018-11-29T21:20:50.011Z,14.3
2018-11-29T21:22:50.155Z,14.9
2018-11-29T21:24:50.256Z,14.2
2018-11-29T21:26:49.644Z,15.0
2018-11-29T21:28:49.766Z,14.6
2018-11-29T21:30:49.881Z,14.6
2018-11-29T21:32:50.087Z,14.6
2018-11-29T21:34:49.688Z,14.8
2018-11-29T21:36:50.039Z,14.6
2018-11-29T21:38:50.184Z,14.6
2018-11-29T21:40:50.406Z,14.8
2018-11-29T21:42:49.616Z,14.8
2018-11-29T21:44:49.737Z,15.7
2018-11-29T21:46:50.036Z,16.1
2018-11-29T21:48:50.154Z,16.1
2018-11-29T21:50:50.340Z,15.7
2018-11-29T21:52:49.561Z,15.7
2018-11-29T21:54:49.776Z,15.7
2018-11-29T21:56:50.145Z,16.7
2018-11-29T21:58:50.245Z,16.0
2018-11-29T22:00:50.384Z,16.0
2018-11-29T22:02:49.550Z,15.2
2018-11-29T22:04:50.136Z,16.2
2018-11-29T22:06:49.557Z,17.1
2018-11-29T22:08:49.797Z,17.1
2018-11-29T22:10:50.000Z,16.3
2018-11-29T22:12:50.204Z,16.6
2018-11-29T22:14:50.317Z,17.2
2018-11-29T22:16:49.738Z,16.9
2018-11-29T22:18:49.873Z,16.9
2018-11-29T22:20:50.340Z,16.7
2018-11-29T22:22:49.632Z,16.3
2018-11-29T22:24:49.756Z,16.3
2018-11-29T22:26:50.045Z,18.0
2018-11-29T22:28:50.196Z,18.8
2018-11-29T22:30:50.326Z,17.9
2018-11-29T22:32:49.551Z,17.1
2018-11-29T22:34:50.221Z,16.4
2018-11-29T22:36:49.555Z,16.4
2018-11-29T22:38:49.689Z,16.4
2018-11-29T22:42:49.740Z,17.6
2018-11-29T22:44:49.922Z,17.2
2018-11-29T22:46:50.275Z,18.4
2018-11-29T22:48:49.586Z,18.4
2018-11-29T22:50:49.839Z,18.2
2018-11-29T22:52:50.002Z,18.3
2018-11-29T22:54:50.177Z,17.3
2018-11-29T22:56:49.608Z,17.3
2018-11-29T22:58:49.811Z,17.7
2018-11-29T23:00:50.021Z,18.3
2018-11-29T23:02:49.553Z,16.6
2018-11-29T23:04:50.111Z,16.6
2018-11-29T23:06:50.486Z,16.7
2018-11-29T23:08:49.592Z,17.8
2018-11-29T23:10:49.682Z,17.4
2018-11-29T23:12:49.864Z,17.1
2018-11-29T23:14:49.981Z,17.3
2018-11-29T23:16:50.284Z,17.3
2018-11-29T23:18:50.409Z,17.7
2018-11-29T23:20:49.650Z,16.7
2018-11-29T23:22:49.813Z,18.3
2018-11-29T23:24:49.989Z,18.3
2018-11-29T23:26:50.266Z,17.5
2018-11-29T23:28:50.486Z,17.3
2018-11-29T23:30:49.607Z,17.9
2018-11-29T23:32:49.794Z,17.6
2018-11-29T23:34:50.327Z,17.6
2018-11-29T23:36:49.718Z,18.1
2018-11-29T23:38:49.889Z,17.5
2018-11-29T23:40:50.099Z,17.2
2018-11-29T23:42:50.289Z,17.2
2018-11-29T23:44:50.458Z,18.8
2018-11-29T23:46:49.807Z,18.8
2018-11-29T23:48:49.963Z,17.5
2018-11-29T23:50:50.197Z,17.8
2018-11-29T23:52:50.370Z,17.8
2018-11-29T23:54:49.586Z,17.0
2018-11-29T23:56:49.956Z,17.0
2018-11-29T23:58:50.105Z,16.7
